Startpagina
METAR-TAF:

METAR-TAF

Vliegvelden :

Sunan International Airport

Pyongyang, Noord-Korea

breedte: 39-02N, lengte: 125-47E, hoogte: 36 m

METAR: ontbreekt

Tijdstip: 06:36 (22:06 UTC)

Verwachting

Dit bericht is 17 uur en het 36 minuten geleden gemaakt, om 04:30 UTC
Verwachting geldig van 18 om 06 UTC tot 19 om 06 UTC
Wind 8 kt uit het noordwesten
Zicht 10 km of meer
geen wolken onder 1500 m en geen cumulonimbus
Wijzigt naar
van 18 om 20 UTC tot 18 om 21 UTC
Wind 8 kt uit het zuidoosten
Gebroken wolken op 2000 ft

TAF: ZKPY 180430Z 1806/1906 32004MPS 9999 CAVOK TX30/1806Z TN19/1821Z BECMG 1820/1821 14004MPS BKN020

Waarnemingen en weersverwachtingen van meer dan 4000 vliegvelden (METAR en TAF).

De beschikbare stations zijn de gele en rode punten op de kaart.

Ga met uw muis naar het station om de naam te zien.

Klik dan om waarnemingen en weersverwachtingen te zien.

kaart wijzigen: klik op de groene knoppen met een zwart kruis om in te zoomen, op de groene knop met een streepje om uit te zoomen of op de groene pijlen voor aangrenzende kaarten.


METAR-TAF: